createdAt,value
2016-07-31T00:00:39.062Z,0
2016-07-31T00:01:39.077Z,0
2016-07-31T00:02:39.111Z,0
2016-07-31T00:03:39.131Z,0
2016-07-31T00:05:39.191Z,0
2016-07-31T00:06:39.213Z,0
2016-07-31T00:07:39.245Z,0
2016-07-31T00:08:39.273Z,0
2016-07-31T00:09:54.224Z,0
2016-07-31T00:10:54.246Z,0
2016-07-31T00:11:39.344Z,0
2016-07-31T00:13:39.407Z,0
2016-07-31T00:14:39.428Z,0
2016-07-31T00:15:39.464Z,0
2016-07-31T00:16:39.485Z,0
2016-07-31T00:17:39.510Z,0
2016-07-31T00:18:39.546Z,0
2016-07-31T00:19:39.566Z,0
2016-07-31T00:20:39.595Z,0
2016-07-31T00:21:39.630Z,0
2016-07-31T00:22:39.642Z,0
2016-07-31T00:23:39.676Z,0
2016-07-31T00:24:39.699Z,0
2016-07-31T00:25:54.646Z,0
2016-07-31T00:26:39.801Z,0
2016-07-31T00:27:39.779Z,0
2016-07-31T00:29:54.750Z,0
2016-07-31T00:30:39.856Z,0
2016-07-31T00:31:39.883Z,0
2016-07-31T00:32:39.909Z,0
2016-07-31T00:33:39.944Z,0
2016-07-31T00:34:39.960Z,0
2016-07-31T00:35:39.988Z,0
2016-07-31T00:36:40.016Z,0
2016-07-31T00:38:54.995Z,0
2016-07-31T00:39:40.096Z,0
2016-07-31T00:40:40.122Z,0
2016-07-31T00:41:55.074Z,0
2016-07-31T00:42:40.181Z,0
2016-07-31T00:43:40.207Z,0
2016-07-31T00:44:40.238Z,0
2016-07-31T00:45:40.271Z,0
2016-07-31T00:46:40.288Z,0
2016-07-31T00:47:40.308Z,0
2016-07-31T00:48:40.332Z,0
2016-07-31T00:49:40.413Z,0
2016-07-31T00:50:40.397Z,0
2016-07-31T00:51:40.418Z,0
2016-07-31T00:52:40.547Z,0
2016-07-31T00:53:55.395Z,0
2016-07-31T00:54:40.496Z,0
2016-07-31T00:55:40.518Z,0
2016-07-31T00:56:40.552Z,0
2016-07-31T00:58:40.600Z,0
2016-07-31T00:59:40.631Z,0
2016-07-31T01:00:40.658Z,0
2016-07-31T01:01:40.683Z,0
2016-07-31T01:02:40.702Z,0
2016-07-31T01:03:40.745Z,0
2016-07-31T01:04:40.769Z,0
2016-07-31T01:05:40.787Z,0
2016-07-31T01:06:40.818Z,0
2016-07-31T01:08:40.863Z,0
2016-07-31T01:09:40.893Z,0
2016-07-31T01:10:40.928Z,0
2016-07-31T01:11:55.876Z,0
2016-07-31T01:13:55.921Z,0
2016-07-31T01:14:41.029Z,0
2016-07-31T01:15:41.054Z,0
2016-07-31T01:17:41.101Z,0
2016-07-31T01:18:41.140Z,0
2016-07-31T01:19:41.160Z,0
2016-07-31T01:20:41.184Z,0
2016-07-31T01:22:41.237Z,0
2016-07-31T01:23:41.267Z,0
2016-07-31T01:24:41.293Z,0
2016-07-31T01:25:41.315Z,0
2016-07-31T01:26:41.338Z,0
2016-07-31T01:27:41.374Z,0
2016-07-31T01:28:56.315Z,0
2016-07-31T01:29:41.428Z,0
2016-07-31T01:30:41.501Z,0
2016-07-31T01:31:41.481Z,0
2016-07-31T01:33:41.526Z,0
2016-07-31T01:34:41.553Z,0
2016-07-31T01:35:41.589Z,0
2016-07-31T01:36:41.624Z,0
2016-07-31T01:37:41.632Z,0
2016-07-31T01:38:41.675Z,0
2016-07-31T01:39:41.695Z,0
2016-07-31T01:40:41.712Z,0
2016-07-31T01:41:41.753Z,0
2016-07-31T01:42:56.694Z,0
2016-07-31T01:43:41.800Z,0
2016-07-31T01:44:56.788Z,0
2016-07-31T01:45:41.852Z,0
2016-07-31T01:46:41.875Z,0
2016-07-31T01:47:41.898Z,0
2016-07-31T01:49:42.001Z,0
2016-07-31T01:50:41.975Z,0
2016-07-31T01:51:42.003Z,0
2016-07-31T01:52:42.031Z,0
2016-07-31T01:53:42.063Z,0
2016-07-31T01:54:42.084Z,0
2016-07-31T01:55:42.110Z,0
2016-07-31T01:56:57.062Z,0
2016-07-31T01:57:42.162Z,0
2016-07-31T01:58:42.189Z,0
2016-07-31T01:59:42.912Z,0
2016-07-31T02:00:57.159Z,0
2016-07-31T02:01:42.266Z,0
2016-07-31T02:02:42.302Z,0
2016-07-31T02:03:42.322Z,0
2016-07-31T02:04:42.364Z,0
2016-07-31T02:05:42.377Z,0
2016-07-31T02:06:42.405Z,0
2016-07-31T02:07:42.433Z,0
2016-07-31T02:08:42.453Z,0
2016-07-31T02:09:42.486Z,0
2016-07-31T02:10:42.511Z,0
2016-07-31T02:11:42.540Z,0
2016-07-31T02:12:42.556Z,0
2016-07-31T02:13:57.508Z,0
2016-07-31T02:14:42.607Z,0
2016-07-31T02:15:42.637Z,0
2016-07-31T02:16:57.588Z,0
2016-07-31T02:17:57.626Z,0
2016-07-31T02:18:57.633Z,0
2016-07-31T02:19:42.737Z,0
2016-07-31T02:21:42.796Z,0
2016-07-31T02:22:42.812Z,0
2016-07-31T02:23:42.847Z,0
2016-07-31T02:24:42.868Z,0
2016-07-31T02:26:42.923Z,0
2016-07-31T02:27:42.947Z,0
2016-07-31T02:28:42.973Z,0
2016-07-31T02:29:42.998Z,0
2016-07-31T02:30:57.950Z,0
2016-07-31T02:31:43.050Z,0
2016-07-31T02:32:58.003Z,0
2016-07-31T02:33:43.110Z,0
2016-07-31T02:34:43.133Z,0
2016-07-31T02:35:43.168Z,0
2016-07-31T02:36:43.185Z,0
2016-07-31T02:37:43.207Z,0
2016-07-31T02:38:43.237Z,0
2016-07-31T02:39:43.260Z,0
2016-07-31T02:40:43.297Z,0
2016-07-31T02:41:43.314Z,4
2016-07-31T02:42:43.351Z,4
2016-07-31T02:43:43.361Z,0
2016-07-31T02:44:43.401Z,0
2016-07-31T02:45:58.347Z,4
2016-07-31T02:46:43.444Z,4
2016-07-31T02:47:43.474Z,4
2016-07-31T02:48:58.424Z,8
2016-07-31T02:49:43.523Z,4
2016-07-31T02:50:43.551Z,8
2016-07-31T02:51:43.577Z,8
2016-07-31T02:52:43.607Z,8
2016-07-31T02:53:43.676Z,8
2016-07-31T02:54:43.762Z,8
2016-07-31T02:55:43.733Z,12
2016-07-31T02:56:43.721Z,16
2016-07-31T02:57:43.742Z,16
2016-07-31T02:58:43.751Z,16
2016-07-31T02:59:43.796Z,20
2016-07-31T03:00:43.817Z,20
2016-07-31T03:01:43.835Z,28
2016-07-31T03:02:43.865Z,28
2016-07-31T03:03:58.810Z,32
2016-07-31T03:04:43.910Z,36
2016-07-31T03:05:43.945Z,40
2016-07-31T03:06:43.968Z,44
2016-07-31T03:07:43.993Z,44
2016-07-31T03:08:44.021Z,52
2016-07-31T03:09:44.052Z,56
2016-07-31T03:10:44.081Z,60
2016-07-31T03:11:44.096Z,68
2016-07-31T03:12:59.054Z,76
2016-07-31T03:13:44.153Z,76
2016-07-31T03:15:59.129Z,92
2016-07-31T03:16:44.234Z,100
2016-07-31T03:17:44.254Z,108
2016-07-31T03:18:44.283Z,116
2016-07-31T03:19:44.308Z,124
2016-07-31T03:20:59.253Z,132
2016-07-31T03:21:44.366Z,140
2016-07-31T03:22:44.384Z,152
2016-07-31T03:23:44.407Z,164
2016-07-31T03:24:45.127Z,176
2016-07-31T03:25:44.469Z,180
2016-07-31T03:27:44.525Z,184
2016-07-31T03:28:44.534Z,192
2016-07-31T03:29:44.560Z,204
2016-07-31T03:30:44.590Z,208
2016-07-31T03:31:44.609Z,216
2016-07-31T03:32:44.639Z,236
2016-07-31T03:33:44.678Z,256
2016-07-31T03:34:44.696Z,280
2016-07-31T03:36:00.335Z,320
2016-07-31T03:36:59.665Z,356
2016-07-31T03:37:44.777Z,384
2016-07-31T03:38:44.798Z,420
2016-07-31T03:39:44.837Z,460
2016-07-31T03:40:44.849Z,500
2016-07-31T03:42:44.893Z,568
2016-07-31T03:43:45.760Z,600
2016-07-31T03:44:44.955Z,644
2016-07-31T03:45:44.974Z,676
2016-07-31T03:46:59.934Z,724
2016-07-31T03:47:45.030Z,760
2016-07-31T03:48:45.056Z,832
2016-07-31T03:49:45.094Z,920
2016-07-31T03:50:45.107Z,1000
2016-07-31T03:52:00.061Z,1056
2016-07-31T03:52:45.866Z,1076
2016-07-31T03:53:45.191Z,1120
2016-07-31T03:54:45.215Z,1224
2016-07-31T03:55:45.292Z,1368
2016-07-31T03:56:45.330Z,1504
2016-07-31T03:57:45.291Z,1604
2016-07-31T03:58:45.329Z,1660
2016-07-31T04:01:00.304Z,1668
2016-07-31T04:01:45.402Z,1612
2016-07-31T04:02:45.421Z,1520
2016-07-31T04:03:45.447Z,1452
2016-07-31T04:04:45.478Z,1420
2016-07-31T04:05:45.509Z,1432
2016-07-31T04:06:45.532Z,1452
2016-07-31T04:08:45.580Z,1480
2016-07-31T04:09:45.611Z,1500
2016-07-31T04:10:45.639Z,1516
2016-07-31T04:11:45.704Z,1536
2016-07-31T04:13:46.540Z,1592
2016-07-31T04:14:45.757Z,1656
2016-07-31T04:15:45.770Z,1724
2016-07-31T04:16:45.798Z,1804
2016-07-31T04:17:45.820Z,1900
2016-07-31T04:18:45.845Z,2048
2016-07-31T04:19:45.870Z,2212
2016-07-31T04:20:45.897Z,2512
2016-07-31T04:22:00.847Z,2864
2016-07-31T04:22:45.949Z,3024
2016-07-31T04:24:00.895Z,3260
2016-07-31T04:25:00.925Z,3444
2016-07-31T04:25:46.028Z,3544
2016-07-31T04:26:46.055Z,3608
2016-07-31T04:27:46.077Z,3472
2016-07-31T04:29:46.129Z,3404
2016-07-31T04:30:46.159Z,3400
2016-07-31T04:31:46.189Z,3380
2016-07-31T04:32:46.213Z,3388
2016-07-31T04:33:46.234Z,3468
2016-07-31T04:35:46.290Z,4048
2016-07-31T04:36:46.310Z,4432
2016-07-31T04:37:46.340Z,4768
2016-07-31T04:39:01.303Z,5196
2016-07-31T04:40:01.317Z,5648
2016-07-31T04:40:46.426Z,6056
2016-07-31T04:41:46.456Z,6544
2016-07-31T04:42:46.481Z,7144
2016-07-31T04:44:46.537Z,7836
2016-07-31T04:45:47.252Z,8172
2016-07-31T04:46:46.589Z,8792
2016-07-31T04:47:46.623Z,9712
2016-07-31T04:48:46.644Z,10084
2016-07-31T04:49:46.668Z,10064
2016-07-31T04:50:46.694Z,10340
2016-07-31T04:51:46.710Z,10680
2016-07-31T04:52:46.737Z,10476
2016-07-31T04:53:46.767Z,11056
2016-07-31T04:54:46.794Z,12676
2016-07-31T04:55:46.821Z,26016
2016-07-31T04:56:46.846Z,37632
2016-07-31T04:57:46.877Z,41600
2016-07-31T04:58:46.897Z,44672
2016-07-31T04:59:46.921Z,31200
2016-07-31T05:00:47.000Z,46144
2016-07-31T05:01:47.029Z,46720
2016-07-31T05:02:47.015Z,46080
2016-07-31T05:03:47.037Z,46240
2016-07-31T05:04:47.061Z,50048
2016-07-31T05:05:47.106Z,50080
2016-07-31T05:06:47.128Z,29984
2016-07-31T05:07:47.153Z,25824
2016-07-31T05:09:02.112Z,10920
2016-07-31T05:09:47.215Z,10620
2016-07-31T05:11:02.175Z,11500
2016-07-31T05:12:02.197Z,11032
2016-07-31T05:12:47.308Z,19872
2016-07-31T05:13:47.384Z,13988
2016-07-31T05:14:47.364Z,13260
2016-07-31T05:15:47.400Z,13496
2016-07-31T05:16:47.430Z,20096
2016-07-31T05:17:47.469Z,24896
2016-07-31T05:18:47.488Z,34208
2016-07-31T05:20:02.445Z,18464
2016-07-31T05:20:47.549Z,23840
2016-07-31T05:21:47.567Z,16960
2016-07-31T05:22:47.607Z,18144
2016-07-31T05:23:47.638Z,20064
2016-07-31T05:24:47.663Z,37696
2016-07-31T05:25:47.689Z,27936
2016-07-31T05:27:02.647Z,40128
2016-07-31T05:28:02.676Z,25824
2016-07-31T05:28:47.781Z,30240
2016-07-31T05:29:47.819Z,32000
2016-07-31T05:30:47.842Z,36384
2016-07-31T05:31:47.871Z,60096
2016-07-31T05:32:47.901Z,47360
2016-07-31T05:33:47.930Z,56064
2016-07-31T05:34:47.971Z,53536
2016-07-31T05:35:47.995Z,52736
2016-07-31T05:36:48.029Z,60096
2016-07-31T05:37:48.061Z,60608
2016-07-31T05:38:48.092Z,61696
2016-07-31T05:39:48.124Z,57376
2016-07-31T05:40:48.157Z,40288
2016-07-31T05:42:03.113Z,42016
2016-07-31T05:43:03.144Z,56896
2016-07-31T05:43:48.266Z,60416
2016-07-31T05:44:48.282Z,62080
2016-07-31T05:45:48.315Z,64928
2016-07-31T05:46:48.356Z,54976
2016-07-31T05:47:48.383Z,50528
2016-07-31T05:48:48.432Z,26432
2016-07-31T05:49:48.452Z,31648
2016-07-31T05:50:48.480Z,25344
2016-07-31T05:51:48.523Z,56160
2016-07-31T05:52:48.552Z,44576
2016-07-31T05:53:48.591Z,52416
2016-07-31T05:55:03.544Z,39904
2016-07-31T05:55:48.649Z,34784
2016-07-31T05:57:03.615Z,58688
2016-07-31T05:57:48.726Z,62048
2016-07-31T05:59:03.690Z,65440
2016-07-31T05:59:48.778Z,64800
2016-07-31T06:00:48.822Z,33856
2016-07-31T06:01:48.854Z,35488
2016-07-31T06:03:48.924Z,62720
2016-07-31T06:04:49.007Z,76064
2016-07-31T06:05:48.986Z,72000
2016-07-31T06:06:49.021Z,74240
2016-07-31T06:07:49.068Z,66816
2016-07-31T06:08:49.095Z,61184
2016-07-31T06:09:49.128Z,47136
2016-07-31T06:10:49.860Z,22784
2016-07-31T06:11:49.192Z,17120
2016-07-31T06:12:49.225Z,11444
2016-07-31T06:14:04.183Z,8360
2016-07-31T06:15:04.219Z,8216
2016-07-31T06:15:49.330Z,8888
2016-07-31T06:16:49.418Z,10356
2016-07-31T06:17:49.394Z,13132
2016-07-31T06:18:49.431Z,17568
2016-07-31T06:19:49.461Z,43392
2016-07-31T06:20:49.491Z,57312
2016-07-31T06:22:04.458Z,33216
2016-07-31T06:22:49.565Z,20096
2016-07-31T06:24:04.520Z,24320
2016-07-31T06:24:49.620Z,17280
2016-07-31T06:25:49.661Z,18688
2016-07-31T06:26:49.689Z,15196
2016-07-31T06:27:49.730Z,25312
2016-07-31T06:28:49.758Z,13896
2016-07-31T06:29:49.794Z,12796
2016-07-31T06:30:50.530Z,11948
2016-07-31T06:32:04.780Z,12448
2016-07-31T06:32:49.884Z,13736
2016-07-31T06:34:49.952Z,19808
2016-07-31T06:35:49.995Z,22848
2016-07-31T06:37:04.949Z,17824
2016-07-31T06:37:50.051Z,22080
2016-07-31T06:38:50.085Z,17280
2016-07-31T06:39:50.116Z,18944
2016-07-31T06:40:50.146Z,14340
2016-07-31T06:43:05.138Z,12660
2016-07-31T06:48:05.294Z,34240
2016-07-31T06:48:50.402Z,25248
2016-07-31T06:49:50.436Z,17920
2016-07-31T06:50:50.459Z,15392
2016-07-31T06:51:50.500Z,15936
2016-07-31T06:52:50.538Z,17056
2016-07-31T06:53:50.563Z,55168
2016-07-31T06:54:50.594Z,61920
2016-07-31T06:55:50.631Z,20672
2016-07-31T06:56:50.665Z,31296
2016-07-31T06:57:50.695Z,55520
2016-07-31T06:58:50.729Z,69440
2016-07-31T07:00:05.684Z,61472
2016-07-31T07:00:50.793Z,41024
2016-07-31T07:02:05.748Z,71904
2016-07-31T07:02:50.853Z,65600
2016-07-31T07:03:50.892Z,38752
2016-07-31T07:04:50.926Z,45984
2016-07-31T07:05:50.949Z,22368
2016-07-31T07:06:51.035Z,21536
2016-07-31T07:07:51.073Z,30592
2016-07-31T07:08:51.048Z,55616
2016-07-31T07:09:51.092Z,66752
2016-07-31T07:10:51.124Z,50464
2016-07-31T07:11:51.144Z,32896
2016-07-31T07:12:51.203Z,45312
2016-07-31T07:13:51.222Z,33280
2016-07-31T07:14:51.354Z,41504
2016-07-31T07:15:51.290Z,60032
2016-07-31T07:16:51.322Z,68736
2016-07-31T07:18:06.332Z,76672
2016-07-31T07:18:51.396Z,75808
2016-07-31T07:20:06.345Z,72096
2016-07-31T07:20:51.459Z,69600
2016-07-31T07:21:51.490Z,67072
2016-07-31T07:22:51.525Z,74848
2016-07-31T07:23:51.558Z,72928
2016-07-31T07:25:51.628Z,31488
2016-07-31T07:26:51.657Z,28448
2016-07-31T07:27:51.689Z,34624
2016-07-31T07:28:51.732Z,58400
2016-07-31T07:29:51.763Z,63360
2016-07-31T07:31:06.748Z,69184
2016-07-31T07:31:51.836Z,74336
2016-07-31T07:32:51.869Z,73696
2016-07-31T07:34:06.821Z,63488
2016-07-31T07:34:51.938Z,60704
2016-07-31T07:35:51.979Z,51904
2016-07-31T07:37:06.928Z,73888
2016-07-31T07:38:52.074Z,69440
2016-07-31T07:39:52.104Z,67552
2016-07-31T07:40:52.147Z,64128
2016-07-31T07:41:52.184Z,68640
2016-07-31T07:42:52.216Z,67264
2016-07-31T07:43:52.264Z,70880
2016-07-31T07:44:52.286Z,72864
2016-07-31T07:45:52.321Z,59648
2016-07-31T07:46:52.361Z,53472
2016-07-31T07:48:07.316Z,44256
2016-07-31T07:49:07.354Z,43744
2016-07-31T07:50:07.387Z,65856
2016-07-31T07:50:52.503Z,55136
2016-07-31T07:51:52.533Z,48288
2016-07-31T07:53:52.605Z,53184
2016-07-31T07:54:52.654Z,28608
2016-07-31T07:55:52.680Z,40928
2016-07-31T07:56:52.712Z,31104
2016-07-31T07:57:52.744Z,22560
2016-07-31T07:58:52.793Z,24864
2016-07-31T07:59:52.817Z,27840
2016-07-31T08:00:52.855Z,24544
2016-07-31T08:02:52.926Z,20832
2016-07-31T08:03:52.957Z,23040
2016-07-31T08:04:52.997Z,21824
2016-07-31T08:05:53.032Z,19488
2016-07-31T08:06:53.067Z,18624
2016-07-31T08:08:53.179Z,18752
2016-07-31T08:09:53.172Z,20256
2016-07-31T08:10:53.196Z,20832
2016-07-31T08:11:53.929Z,22048
2016-07-31T08:12:53.281Z,19232
2016-07-31T08:13:53.290Z,17376
2016-07-31T08:14:53.332Z,18624
2016-07-31T08:15:53.373Z,21024
2016-07-31T08:16:53.452Z,18144
2016-07-31T08:17:53.442Z,18496
2016-07-31T08:18:53.469Z,18432
2016-07-31T08:21:08.462Z,17216
2016-07-31T08:22:53.607Z,16516
2016-07-31T08:23:54.344Z,16928
2016-07-31T08:24:53.677Z,17344
2016-07-31T08:25:53.706Z,17952
2016-07-31T08:26:53.735Z,20192
2016-07-31T08:28:08.704Z,20320
2016-07-31T08:28:53.796Z,20448
2016-07-31T08:29:53.839Z,21952
2016-07-31T08:31:08.802Z,24576
2016-07-31T08:31:53.906Z,32096
2016-07-31T08:32:53.935Z,21792
2016-07-31T08:33:53.971Z,29440
2016-07-31T08:35:08.929Z,25120
2016-07-31T08:35:54.043Z,21408
2016-07-31T08:37:54.103Z,27136
2016-07-31T08:38:54.136Z,19456
2016-07-31T08:39:54.175Z,19008
2016-07-31T08:40:54.203Z,21536
2016-07-31T08:41:54.237Z,20640
2016-07-31T08:42:54.971Z,19424
2016-07-31T08:43:54.310Z,18752
2016-07-31T08:45:09.277Z,18560
2016-07-31T08:45:54.372Z,20320
2016-07-31T08:46:54.413Z,18880
2016-07-31T08:47:54.435Z,20032
2016-07-31T08:48:54.470Z,19872
2016-07-31T08:49:54.504Z,21760
2016-07-31T08:51:09.467Z,19168
2016-07-31T08:51:54.575Z,18080
2016-07-31T08:53:09.535Z,19744
2016-07-31T08:53:54.634Z,18112
2016-07-31T08:54:54.674Z,18688
2016-07-31T08:55:54.712Z,18272
2016-07-31T08:56:54.738Z,23008
2016-07-31T08:57:54.775Z,19744
2016-07-31T08:58:54.813Z,19680
2016-07-31T09:00:54.875Z,19232
2016-07-31T09:01:54.899Z,18528
2016-07-31T09:02:54.939Z,19168
2016-07-31T09:03:54.972Z,21824
2016-07-31T09:04:55.707Z,29728
2016-07-31T09:05:55.041Z,29984
2016-07-31T09:06:55.075Z,30304
2016-07-31T09:07:55.174Z,27168
2016-07-31T09:09:10.068Z,25024
2016-07-31T09:10:10.146Z,27360
2016-07-31T09:10:55.206Z,26912
2016-07-31T09:11:55.245Z,25984
2016-07-31T09:12:55.275Z,25312
2016-07-31T09:13:55.311Z,22688
2016-07-31T09:14:57.816Z,19584
2016-07-31T09:15:55.373Z,17076
2016-07-31T09:16:55.414Z,17000
2016-07-31T09:17:55.441Z,21280
2016-07-31T09:18:55.480Z,18016
2016-07-31T09:19:55.560Z,16232
2016-07-31T09:20:55.610Z,17888
2016-07-31T09:21:55.588Z,18112
2016-07-31T09:22:55.619Z,17248
2016-07-31T09:24:10.577Z,17920
2016-07-31T09:25:10.610Z,16608
2016-07-31T09:25:55.715Z,18208
2016-07-31T09:26:55.756Z,17472
2016-07-31T09:27:55.793Z,17280
2016-07-31T09:28:55.827Z,16084
2016-07-31T09:29:58.331Z,14140
2016-07-31T09:31:55.924Z,15724
2016-07-31T09:32:55.956Z,21376
2016-07-31T09:34:56.026Z,18912
2016-07-31T09:35:56.052Z,15228
2016-07-31T09:36:56.091Z,15092
2016-07-31T09:37:56.131Z,15524
2016-07-31T09:38:56.166Z,17856
2016-07-31T09:40:56.226Z,18656
2016-07-31T09:41:56.272Z,19200
2016-07-31T09:42:56.286Z,18336
2016-07-31T09:43:56.332Z,17120
2016-07-31T09:45:56.386Z,15236
2016-07-31T09:46:56.429Z,14744
2016-07-31T09:47:56.463Z,14816
2016-07-31T09:48:56.492Z,14868
2016-07-31T09:49:56.532Z,14916
2016-07-31T09:50:56.567Z,15020
2016-07-31T09:51:56.596Z,15128
2016-07-31T09:54:11.590Z,15696
2016-07-31T09:54:56.689Z,15692
2016-07-31T09:56:11.657Z,16392
2016-07-31T09:57:11.698Z,16316
2016-07-31T09:57:56.800Z,21056
2016-07-31T09:59:56.862Z,15660
2016-07-31T10:00:56.900Z,15332
2016-07-31T10:02:56.964Z,15132
2016-07-31T10:03:57.006Z,15132
2016-07-31T10:04:57.033Z,14832
2016-07-31T10:05:57.061Z,15432
2016-07-31T10:06:57.092Z,15404
2016-07-31T10:07:57.134Z,14816
2016-07-31T10:08:57.175Z,15724
2016-07-31T10:09:57.199Z,14488
2016-07-31T10:11:12.153Z,14040
2016-07-31T10:12:12.285Z,14032
2016-07-31T10:13:12.226Z,14260
2016-07-31T10:13:57.322Z,13504
2016-07-31T10:14:57.368Z,13144
2016-07-31T10:15:57.388Z,12588
2016-07-31T10:16:57.427Z,12276
2016-07-31T10:18:58.182Z,11852
2016-07-31T10:19:57.530Z,11544
2016-07-31T10:20:57.562Z,11200
2016-07-31T10:21:57.588Z,10940
2016-07-31T10:22:57.621Z,10776
2016-07-31T10:23:57.666Z,10544
2016-07-31T10:24:57.686Z,10388
2016-07-31T10:26:12.649Z,10964
2016-07-31T10:28:57.814Z,11984
2016-07-31T10:29:57.860Z,12116
2016-07-31T10:31:12.810Z,13392
2016-07-31T10:31:57.930Z,12756
2016-07-31T10:32:57.965Z,17568
2016-07-31T10:34:12.921Z,12988
2016-07-31T10:35:58.057Z,14396
2016-07-31T10:36:58.091Z,17152
2016-07-31T10:37:58.119Z,15284
2016-07-31T10:38:58.150Z,16504
2016-07-31T10:40:13.116Z,17792
2016-07-31T10:41:13.144Z,18144
2016-07-31T10:41:58.262Z,20640
2016-07-31T10:43:13.213Z,18112
2016-07-31T10:44:13.241Z,15052
2016-07-31T10:44:58.345Z,15660
2016-07-31T10:45:58.388Z,17152
2016-07-31T10:46:58.417Z,15328
2016-07-31T10:47:58.457Z,14908
2016-07-31T10:48:58.476Z,14404
2016-07-31T10:49:58.519Z,13908
2016-07-31T10:50:58.551Z,14852
2016-07-31T10:51:58.583Z,15140
2016-07-31T10:52:59.314Z,15024
2016-07-31T10:53:58.648Z,18464
2016-07-31T10:54:58.684Z,18272
2016-07-31T10:55:58.716Z,16896
2016-07-31T10:56:58.750Z,16252
2016-07-31T10:59:13.753Z,17376
2016-07-31T10:59:58.848Z,16260
2016-07-31T11:00:58.879Z,16372
2016-07-31T11:01:58.918Z,13176
2016-07-31T11:02:58.947Z,13980
2016-07-31T11:03:58.983Z,13216
2016-07-31T11:04:59.007Z,13060
2016-07-31T11:05:59.049Z,13020
2016-07-31T11:07:14.009Z,13220
2016-07-31T11:07:59.110Z,13580
2016-07-31T11:08:59.137Z,16896
2016-07-31T11:09:59.185Z,14740
2016-07-31T11:10:59.221Z,15636
2016-07-31T11:11:59.241Z,15092
2016-07-31T11:12:59.278Z,15836
2016-07-31T11:14:14.233Z,14404
2016-07-31T11:14:59.344Z,13196
2016-07-31T11:15:59.372Z,12560
2016-07-31T11:16:59.407Z,12088
2016-07-31T11:17:59.436Z,12120
2016-07-31T11:19:59.813Z,12420
2016-07-31T11:20:59.537Z,12460
2016-07-31T11:22:59.610Z,12232
2016-07-31T11:23:59.636Z,15164
2016-07-31T11:24:59.667Z,12224
2016-07-31T11:26:15.382Z,11904
2016-07-31T11:26:59.738Z,11444
2016-07-31T11:27:59.764Z,11784
2016-07-31T11:28:59.801Z,12580
2016-07-31T11:29:59.835Z,14464
2016-07-31T11:31:59.903Z,12428
2016-07-31T11:32:59.935Z,10776
2016-07-31T11:33:59.967Z,10608
2016-07-31T11:34:59.997Z,10440
2016-07-31T11:36:00.034Z,10316
2016-07-31T11:37:00.062Z,10552
2016-07-31T11:38:00.097Z,10904
2016-07-31T11:39:00.131Z,11488
2016-07-31T11:40:00.168Z,11520
2016-07-31T11:41:00.197Z,11660
2016-07-31T11:43:00.258Z,11964
2016-07-31T11:44:00.293Z,12120
2016-07-31T11:45:15.256Z,12168
2016-07-31T11:48:00.423Z,10984
2016-07-31T11:49:00.464Z,10620
2016-07-31T11:50:00.499Z,10392
2016-07-31T11:51:00.533Z,10308
2016-07-31T11:52:00.563Z,10356
2016-07-31T11:53:00.590Z,10536
2016-07-31T11:54:00.624Z,10644
2016-07-31T11:55:00.672Z,10696
2016-07-31T11:56:00.686Z,10956
2016-07-31T11:57:00.724Z,11564
2016-07-31T11:58:00.753Z,12064
2016-07-31T11:59:15.714Z,11804
2016-07-31T12:00:15.750Z,11824
2016-07-31T12:01:00.845Z,11276
2016-07-31T12:02:00.897Z,10888
2016-07-31T12:03:15.838Z,10452
2016-07-31T12:04:00.946Z,10300
2016-07-31T12:05:00.983Z,9832
2016-07-31T12:06:01.014Z,10032
2016-07-31T12:07:01.739Z,9592
2016-07-31T12:08:01.079Z,9060
2016-07-31T12:10:01.147Z,8888
2016-07-31T12:11:01.180Z,9680
2016-07-31T12:12:01.211Z,9104
2016-07-31T12:13:01.246Z,9452
2016-07-31T12:14:01.273Z,7920
2016-07-31T12:15:01.307Z,7060
2016-07-31T12:16:01.343Z,7068
2016-07-31T12:17:01.373Z,6884
2016-07-31T12:18:16.330Z,6764
2016-07-31T12:21:01.505Z,8284
2016-07-31T12:22:01.590Z,6784
2016-07-31T12:23:01.575Z,6620
2016-07-31T12:24:01.601Z,6596
2016-07-31T12:25:01.636Z,6500
2016-07-31T12:26:01.670Z,6736
2016-07-31T12:27:01.701Z,6912
2016-07-31T12:28:01.732Z,8368
2016-07-31T12:29:01.808Z,9124
2016-07-31T12:30:01.846Z,8248
2016-07-31T12:31:01.825Z,8432
2016-07-31T12:32:01.873Z,8428
2016-07-31T12:33:01.906Z,8268
2016-07-31T12:34:16.847Z,8004
2016-07-31T12:35:01.960Z,8000
2016-07-31T12:36:02.696Z,8036
2016-07-31T12:37:02.029Z,8064
2016-07-31T12:38:02.055Z,8000
2016-07-31T12:39:02.087Z,8088
2016-07-31T12:40:02.120Z,7544
2016-07-31T12:41:02.148Z,8236
2016-07-31T12:42:02.238Z,8524
2016-07-31T12:44:02.246Z,8492
2016-07-31T12:45:02.288Z,8592
2016-07-31T12:46:02.316Z,8784
2016-07-31T12:47:02.343Z,8096
2016-07-31T12:48:02.379Z,7004
2016-07-31T12:49:02.410Z,7060
2016-07-31T12:50:02.444Z,8924
2016-07-31T12:51:02.475Z,8692
2016-07-31T12:52:02.507Z,9092
2016-07-31T12:53:02.543Z,9760
2016-07-31T12:54:02.569Z,10008
2016-07-31T12:55:02.608Z,9740
2016-07-31T12:57:03.374Z,9472
2016-07-31T12:59:02.731Z,9208
2016-07-31T13:00:02.923Z,9272
2016-07-31T13:01:03.633Z,9232
2016-07-31T13:02:02.835Z,9288
2016-07-31T13:04:02.897Z,7792
2016-07-31T13:05:02.934Z,7616
2016-07-31T13:06:17.900Z,7380
2016-07-31T13:08:03.030Z,7136
2016-07-31T13:09:03.067Z,7056
2016-07-31T13:10:03.104Z,7200
2016-07-31T13:12:03.859Z,7408
2016-07-31T13:13:03.197Z,7508
2016-07-31T13:14:03.226Z,7520
2016-07-31T13:15:03.264Z,7556
2016-07-31T13:16:04.126Z,7624
2016-07-31T13:17:03.323Z,7732
2016-07-31T13:18:03.357Z,8012
2016-07-31T13:19:03.401Z,8268
2016-07-31T13:21:03.446Z,9528
2016-07-31T13:22:18.414Z,10316
2016-07-31T13:23:03.523Z,10764
2016-07-31T13:24:03.550Z,11016
2016-07-31T13:25:03.581Z,10712
2016-07-31T13:26:03.614Z,11112
2016-07-31T13:27:03.648Z,8736
2016-07-31T13:28:03.684Z,8468
2016-07-31T13:29:03.713Z,8344
2016-07-31T13:30:03.803Z,8196
2016-07-31T13:32:18.741Z,7268
2016-07-31T13:33:03.911Z,7044
2016-07-31T13:34:03.874Z,7016
2016-07-31T13:35:03.916Z,7436
2016-07-31T13:36:03.952Z,7752
2016-07-31T13:37:03.973Z,7804
2016-07-31T13:38:18.924Z,7816
2016-07-31T13:40:04.082Z,7660
2016-07-31T13:41:04.107Z,7540
2016-07-31T13:42:04.139Z,7672
2016-07-31T13:43:04.211Z,7612
2016-07-31T13:44:04.199Z,7496
2016-07-31T13:45:04.253Z,7368
2016-07-31T13:47:04.307Z,7168
2016-07-31T13:48:04.339Z,7312
2016-07-31T13:49:04.380Z,7776
2016-07-31T13:50:04.396Z,8884
2016-07-31T13:51:19.358Z,7200
2016-07-31T13:52:04.478Z,7152
2016-07-31T13:53:04.488Z,7348
2016-07-31T13:54:19.454Z,7752
2016-07-31T13:55:19.481Z,8276
2016-07-31T13:56:04.591Z,8184
2016-07-31T13:57:04.622Z,8084
2016-07-31T13:58:04.653Z,7676
2016-07-31T13:59:04.688Z,7404
2016-07-31T14:00:04.728Z,7220
2016-07-31T14:01:04.747Z,7080
2016-07-31T14:02:04.777Z,6976
2016-07-31T14:03:19.747Z,6844
2016-07-31T14:04:04.851Z,6820
2016-07-31T14:05:04.887Z,6848
2016-07-31T14:07:04.949Z,7188
2016-07-31T14:08:19.900Z,7208
2016-07-31T14:10:05.046Z,6944
2016-07-31T14:11:05.077Z,7036
2016-07-31T14:12:05.104Z,7108
2016-07-31T14:13:05.140Z,7180
2016-07-31T14:14:05.179Z,7268
2016-07-31T14:15:05.202Z,7200
2016-07-31T14:17:05.265Z,6512
2016-07-31T14:18:05.301Z,6328
2016-07-31T14:19:05.322Z,6316
2016-07-31T14:20:05.361Z,6092
2016-07-31T14:22:05.424Z,5520
2016-07-31T14:23:05.462Z,5156
2016-07-31T14:24:05.505Z,4972
2016-07-31T14:25:05.523Z,4940
2016-07-31T14:26:20.478Z,4912
2016-07-31T14:27:05.585Z,4788
2016-07-31T14:29:05.647Z,4316
2016-07-31T14:30:05.680Z,4072
2016-07-31T14:31:05.716Z,3888
2016-07-31T14:32:05.764Z,3756
2016-07-31T14:33:05.831Z,3536
2016-07-31T14:34:20.740Z,3160
2016-07-31T14:35:20.774Z,2876
2016-07-31T14:36:05.873Z,2676
2016-07-31T14:37:05.901Z,2440
2016-07-31T14:38:05.937Z,2236